Time;durP1;ratioP1;P1;durP2;ratioP2;P2;SDS_P1;SDS_P2;PMS_P1;PMS_P2;Temp;Humidity;BMP_temperature;BMP_pressure;BME280_temperature;BME280_humidity;BME280_pressure;Samples;Min_cycle;Max_cycle;Signal;HPM_P1;HPM_P2
2022/12/28 00:01:27;;;;;;;12.27;7.43;;;2.30;78.40;;;;;;4998405;28;20474;-64
2022/12/28 00:03:53;;;;;;;8.57;5.57;;;2.30;77.70;;;;;;5014087;28;20530;-64
2022/12/28 00:06:21;;;;;;;10.57;6.47;;;2.30;77.50;;;;;;5043687;28;20513;-64
2022/12/28 00:08:46;;;;;;;10.30;6.93;;;2.20;77.80;;;;;;5030616;28;20441;-64
2022/12/28 00:11:18;;;;;;;9.00;6.50;;;2.10;78.30;;;;;;5021709;28;20567;-64
2022/12/28 00:13:44;;;;;;;7.80;6.03;;;2.00;79.20;;;;;;5032266;28;20233;-65
2022/12/28 00:16:19;;;;;;;12.23;7.70;;;2.10;78.90;;;;;;5034859;28;20453;-65
2022/12/28 00:18:45;;;;;;;7.20;5.67;;;2.00;79.00;;;;;;5031103;28;20477;-65
2022/12/28 00:21:11;;;;;;;9.67;6.63;;;2.10;78.90;;;;;;5014184;28;20434;-65
2022/12/28 00:23:36;;;;;;;9.73;6.50;;;2.10;78.80;;;;;;5035593;28;20219;-65
2022/12/28 00:26:10;;;;;;;8.70;6.17;;;2.10;78.60;;;;;;4985283;28;20194;-65
2022/12/28 00:28:36;;;;;;;10.67;6.93;;;2.00;78.70;;;;;;5020256;28;20191;-65
2022/12/28 00:31:02;;;;;;;10.47;6.27;;;2.00;78.70;;;;;;5041945;28;20432;-65
2022/12/28 00:33:29;;;;;;;10.47;6.57;;;2.00;78.80;;;;;;5033481;28;20187;-65
2022/12/28 00:35:56;;;;;;;8.97;5.90;;;1.90;79.00;;;;;;5034211;28;20414;-65
2022/12/28 00:38:22;;;;;;;9.20;5.67;;;1.90;78.80;;;;;;5016967;28;20480;-65
2022/12/28 00:40:48;;;;;;;8.77;5.07;;;2.00;78.60;;;;;;5012152;28;20472;-65
2022/12/28 00:43:14;;;;;;;8.00;5.40;;;2.00;78.70;;;;;;5004962;28;20756;-65
2022/12/28 00:45:46;;;;;;;10.03;5.73;;;2.00;78.70;;;;;;5017790;28;20186;-65
2022/12/28 00:48:13;;;;;;;9.97;6.10;;;1.90;78.80;;;;;;5016723;28;20438;-65
2022/12/28 00:50:39;;;;;;;8.77;6.13;;;2.00;78.90;;;;;;5019124;28;20499;-65
2022/12/28 00:53:04;;;;;;;6.80;5.20;;;2.00;79.00;;;;;;5046264;28;20530;-65
2022/12/28 00:55:32;;;;;;;9.93;5.77;;;2.00;79.00;;;;;;5002235;28;20202;-64
2022/12/28 00:57:58;;;;;;;7.93;5.20;;;2.00;78.90;;;;;;5035212;28;20336;-64
2022/12/28 01:00:24;;;;;;;8.73;5.13;;;2.00;78.80;;;;;;5019474;28;20980;-64
2022/12/28 01:02:50;;;;;;;7.77;4.93;;;2.00;78.70;;;;;;5020176;28;20470;-64
2022/12/28 01:05:16;;;;;;;7.40;5.47;;;2.00;78.80;;;;;;5042285;28;20214;-64
2022/12/28 01:07:42;;;;;;;8.07;5.17;;;2.00;78.70;;;;;;5047138;28;20272;-64
2022/12/28 01:10:08;;;;;;;8.13;5.63;;;2.00;78.70;;;;;;5034193;28;20494;-64
2022/12/28 01:12:33;;;;;;;7.10;5.13;;;2.00;78.70;;;;;;5030005;28;20179;-64
2022/12/28 01:14:59;;;;;;;6.63;5.00;;;2.00;78.90;;;;;;5023000;28;20499;-64
2022/12/28 01:17:25;;;;;;;8.07;5.77;;;2.00;79.00;;;;;;5033355;28;20187;-64
2022/12/28 01:19:51;;;;;;;7.33;5.23;;;2.00;79.00;;;;;;5017353;28;20194;-64
2022/12/28 01:22:16;;;;;;;7.07;4.90;;;2.00;79.20;;;;;;5044860;28;20191;-64
2022/12/28 01:24:42;;;;;;;9.97;6.07;;;2.00;79.00;;;;;;5014231;28;20314;-64
2022/12/28 01:27:08;;;;;;;7.80;4.80;;;1.90;79.40;;;;;;5010393;28;20183;-64
2022/12/28 01:29:33;;;;;;;7.27;4.80;;;1.90;79.30;;;;;;5008873;28;20195;-64
2022/12/28 01:31:59;;;;;;;8.50;5.13;;;2.00;79.20;;;;;;5012325;28;20194;-64
2022/12/28 01:34:25;;;;;;;6.97;5.00;;;2.00;79.20;;;;;;5014600;28;20191;-65
2022/12/28 01:36:50;;;;;;;7.67;5.20;;;2.00;79.00;;;;;;5048860;28;20204;-65
2022/12/28 01:39:16;;;;;;;5.60;4.20;;;2.00;78.90;;;;;;5015058;28;20226;-65
2022/12/28 01:41:42;;;;;;;8.63;5.67;;;2.00;78.70;;;;;;5014945;28;20198;-64
2022/12/28 01:44:09;;;;;;;7.63;4.50;;;1.90;78.80;;;;;;5027324;28;20292;-64
2022/12/28 01:46:45;;;;;;;8.93;5.20;;;1.90;78.70;;;;;;5029297;28;20437;-64
2022/12/28 01:49:35;;;;;;;6.67;4.77;;;1.90;78.60;;;;;;5033123;28;20416;-64
2022/12/28 01:52:18;;;;;;;8.23;4.87;;;1.80;78.60;;;;;;5025532;28;20421;-64
2022/12/28 01:55:06;;;;;;;6.77;4.23;;;1.80;78.70;;;;;;5022632;28;20421;-64
2022/12/28 01:57:53;;;;;;;5.97;4.07;;;1.70;78.70;;;;;;5031504;28;20441;-64
2022/12/28 02:00:20;;;;;;;9.10;4.77;;;1.70;78.70;;;;;;5031952;28;20421;-64
2022/12/28 02:02:55;;;;;;;6.47;4.50;;;1.70;78.80;;;;;;5019085;28;20489;-64
2022/12/28 02:05:26;;;;;;;6.53;4.10;;;1.60;79.00;;;;;;5051592;28;20474;-64
2022/12/28 02:08:00;;;;;;;6.43;4.00;;;1.50;79.00;;;;;;5044514;28;20422;-64
2022/12/28 02:10:27;;;;;;;7.17;4.23;;;1.50;78.60;;;;;;5033431;28;20436;-64
2022/12/28 02:12:55;;;;;;;6.30;4.90;;;1.40;78.90;;;;;;5022253;28;20448;-64
2022/12/28 02:15:21;;;;;;;5.67;4.60;;;1.40;79.10;;;;;;5036911;28;20429;-64
2022/12/28 02:17:47;;;;;;;6.80;4.33;;;1.40;79.20;;;;;;5013991;28;20535;-64
2022/12/28 02:20:13;;;;;;;3.97;3.50;;;1.30;79.20;;;;;;5015736;28;20197;-64
2022/12/28 02:23:07;;;;;;;5.40;4.00;;;1.30;79.10;;;;;;5007807;28;20193;-64
2022/12/28 02:26:27;;;;;;;6.93;4.03;;;1.20;79.20;;;;;;5027817;28;20472;-65
2022/12/28 02:28:59;;;;;;;5.00;3.97;;;1.20;79.30;;;;;;4990511;28;20440;-65
2022/12/28 02:31:34;;;;;;;5.20;3.87;;;1.10;79.20;;;;;;5030834;28;20464;-65
2022/12/28 02:34:12;;;;;;;4.13;3.17;;;1.10;79.10;;;;;;5016614;28;20438;-65
2022/12/28 02:36:45;;;;;;;4.73;2.93;;;1.00;79.00;;;;;;5045363;28;20429;-65
2022/12/28 02:39:27;;;;;;;3.93;3.27;;;1.00;79.10;;;;;;5035439;28;20441;-65
2022/12/28 02:41:55;;;;;;;5.00;3.70;;;1.00;79.00;;;;;;5032537;28;20464;-65
2022/12/28 02:50:07;;;;;;;6.73;3.97;;;0.80;79.60;;;;;;5034114;28;20468;-65
2022/12/28 02:52:49;;;;;;;4.50;3.10;;;0.80;79.60;;;;;;5020327;28;20444;-65
2022/12/28 02:58:14;;;;;;;6.33;3.83;;;0.80;79.70;;;;;;5046994;28;20416;-65
2022/12/28 03:01:21;;;;;;;5.63;3.77;;;0.70;79.70;;;;;;5048195;28;20432;-65
2022/12/28 03:03:59;;;;;;;5.73;4.33;;;0.60;80.40;;;;;;5043707;28;20465;-65
2022/12/28 03:09:38;;;;;;;4.13;3.30;;;0.60;80.10;;;;;;5032658;28;20416;-65
2022/12/28 03:12:27;;;;;;;4.97;3.77;;;0.50;80.20;;;;;;5020008;28;20461;-65
2022/12/28 03:14:58;;;;;;;4.77;3.87;;;0.50;80.10;;;;;;5017718;28;20440;-65
2022/12/28 03:31:34;;;;;;;7.03;3.93;;;0.20;80.80;;;;;;5036006;28;20409;-65
2022/12/28 03:34:07;;;;;;;5.73;4.07;;;0.20;80.60;;;;;;5026482;28;20471;-65
2022/12/28 03:37:05;;;;;;;6.87;3.87;;;0.10;81.10;;;;;;5015152;28;20439;-65
2022/12/28 03:39:33;;;;;;;4.17;3.40;;;0.20;80.80;;;;;;5017176;28;20456;-65
2022/12/28 03:44:54;;;;;;;4.20;3.70;;;0.00;80.90;;;;;;5044241;28;20494;-65
2022/12/28 03:47:23;;;;;;;6.17;3.73;;;0.10;80.90;;;;;;5036089;28;20460;-65
2022/12/28 03:49:49;;;;;;;4.47;3.80;;;0.10;80.90;;;;;;5035734;28;20450;-65
2022/12/28 03:52:15;;;;;;;7.57;3.70;;;0.10;80.90;;;;;;5015940;28;20458;-65
2022/12/28 03:54:41;;;;;;;3.90;2.93;;;0.10;81.00;;;;;;5035990;28;20223;-65
2022/12/28 03:57:07;;;;;;;5.03;3.97;;;0.10;81.10;;;;;;5021733;28;20438;-65
2022/12/28 03:59:33;;;;;;;5.13;3.70;;;0.00;81.30;;;;;;5034566;28;20424;-65
2022/12/28 04:01:59;;;;;;;4.93;3.37;;;0.10;81.10;;;;;;5033853;28;20238;-65
2022/12/28 04:04:24;;;;;;;4.13;3.10;;;0.00;81.50;;;;;;5022726;28;20202;-65
2022/12/28 04:06:50;;;;;;;7.43;4.23;;;0.00;81.20;;;;;;5023906;28;20209;-65
2022/12/28 04:09:16;;;;;;;9.27;4.37;;;0.00;81.40;;;;;;5035758;28;20185;-65
2022/12/28 04:11:41;;;;;;;4.43;3.70;;;0.00;81.20;;;;;;5024669;28;20219;-65
2022/12/28 04:14:07;;;;;;;4.63;3.40;;;0.00;81.30;;;;;;5022613;28;20225;-65
2022/12/28 04:16:33;;;;;;;5.30;3.13;;;0.00;81.20;;;;;;5037982;28;20199;-65
2022/12/28 04:18:58;;;;;;;4.23;3.40;;;0.00;81.40;;;;;;5040595;28;20271;-65
2022/12/28 04:21:24;;;;;;;3.47;3.00;;;0.00;81.50;;;;;;5020437;28;20187;-65
2022/12/28 04:23:50;;;;;;;3.90;3.30;;;0.00;81.60;;;;;;5005381;28;20329;-65
2022/12/28 04:26:16;;;;;;;6.20;3.73;;;0.00;81.60;;;;;;5020435;28;20220;-65
2022/12/28 04:28:43;;;;;;;5.47;3.87;;;0.00;81.60;;;;;;5017835;28;20187;-65
2022/12/28 04:31:10;;;;;;;4.77;3.73;;;0.00;81.80;;;;;;5031067;28;20421;-65
2022/12/28 04:33:37;;;;;;;5.30;3.50;;;0.00;81.70;;;;;;5044620;28;20429;-65
2022/12/28 04:36:09;;;;;;;6.73;3.90;;;0.00;81.80;;;;;;5036919;28;20444;-65
2022/12/28 04:38:36;;;;;;;4.30;3.30;;;0.00;81.70;;;;;;5029333;28;20426;-65
2022/12/28 04:41:03;;;;;;;4.57;3.57;;;0.00;81.70;;;;;;5040299;28;20431;-65
2022/12/28 04:43:29;;;;;;;6.50;3.90;;;0.00;81.60;;;;;;5028067;28;20429;-65
2022/12/28 04:46:00;;;;;;;6.40;4.27;;;0.00;81.90;;;;;;5019204;28;20445;-65
2022/12/28 04:48:26;;;;;;;5.03;3.57;;;0.00;82.10;;;;;;5036315;28;20434;-65
2022/12/28 04:50:53;;;;;;;7.30;4.60;;;0.00;82.00;;;;;;5018435;28;20429;-65
2022/12/28 04:53:19;;;;;;;5.20;3.70;;;0.00;82.00;;;;;;5018162;28;20477;-65
2022/12/28 04:55:44;;;;;;;7.23;4.07;;;0.00;81.80;;;;;;5028335;28;20483;-65
2022/12/28 04:58:10;;;;;;;6.50;3.93;;;0.00;81.80;;;;;;5030441;28;20190;-65
2022/12/28 05:00:36;;;;;;;5.03;3.83;;;0.00;81.60;;;;;;5029482;28;20187;-65
2022/12/28 05:03:02;;;;;;;4.90;3.57;;;-0.10;81.60;;;;;;5017455;28;20285;-65
2022/12/28 05:05:28;;;;;;;6.47;3.87;;;-0.10;81.50;;;;;;5029966;28;20203;-65
2022/12/28 05:07:54;;;;;;;7.43;3.73;;;-0.10;81.60;;;;;;5025922;28;20196;-65
2022/12/28 05:10:20;;;;;;;5.87;3.87;;;-0.10;81.40;;;;;;5021297;28;20507;-65
2022/12/28 05:12:46;;;;;;;4.40;3.40;;;-0.10;81.80;;;;;;5013211;28;20470;-65
2022/12/28 05:15:12;;;;;;;6.10;3.97;;;-0.20;81.70;;;;;;5032824;28;20270;-65
2022/12/28 05:17:37;;;;;;;6.47;4.40;;;-0.10;81.80;;;;;;5029788;28;20273;-65
2022/12/28 05:20:04;;;;;;;9.70;4.77;;;-0.20;81.70;;;;;;5018204;28;20201;-65
2022/12/28 05:22:30;;;;;;;5.87;3.73;;;-0.20;81.40;;;;;;5031813;28;20308;-65
2022/12/28 05:24:56;;;;;;;4.97;3.70;;;-0.30;82.00;;;;;;5016983;28;20479;-65
2022/12/28 05:27:21;;;;;;;7.90;4.00;;;-0.20;82.00;;;;;;5020922;28;20453;-65
2022/12/28 05:29:47;;;;;;;5.50;3.57;;;-0.20;81.90;;;;;;5008546;28;20244;-65
2022/12/28 05:32:13;;;;;;;5.33;4.03;;;-0.30;81.90;;;;;;5009160;28;20195;-65
2022/12/28 05:34:38;;;;;;;6.37;4.23;;;-0.40;82.50;;;;;;5027021;28;20202;-65
2022/12/28 05:37:04;;;;;;;4.23;3.70;;;-0.30;82.20;;;;;;5023770;28;20260;-65
2022/12/28 05:39:30;;;;;;;5.60;4.17;;;-0.30;82.10;;;;;;5011842;28;20263;-65
2022/12/28 05:41:58;;;;;;;6.33;4.10;;;-0.40;82.10;;;;;;5033534;28;20200;-65
2022/12/28 05:44:25;;;;;;;5.53;4.47;;;-0.40;81.90;;;;;;5025744;28;20219;-65
2022/12/28 05:46:51;;;;;;;7.53;3.80;;;-0.30;81.90;;;;;;5031771;28;20454;-65
2022/12/28 05:49:17;;;;;;;6.47;4.40;;;-0.40;81.90;;;;;;5000949;28;20430;-65
2022/12/28 05:51:42;;;;;;;5.67;4.10;;;-0.40;81.80;;;;;;5009446;28;20194;-65
2022/12/28 05:54:08;;;;;;;6.07;4.00;;;-0.40;82.00;;;;;;5018780;28;20296;-65
2022/12/28 05:56:34;;;;;;;5.77;4.07;;;-0.40;82.10;;;;;;5025380;28;20194;-65
2022/12/28 05:59:02;;;;;;;4.77;4.03;;;-0.40;82.10;;;;;;5017479;28;20194;-65
2022/12/28 06:01:31;;;;;;;5.70;4.03;;;-0.40;82.40;;;;;;5030738;28;20493;-65
2022/12/28 06:04:06;;;;;;;5.00;3.83;;;-0.40;82.40;;;;;;5032077;28;20469;-65
2022/12/28 06:06:33;;;;;;;5.23;3.77;;;-0.40;82.40;;;;;;5043639;28;20438;-65
2022/12/28 06:09:00;;;;;;;4.43;4.00;;;-0.40;82.40;;;;;;5015887;28;20436;-65
2022/12/28 06:11:27;;;;;;;7.37;4.07;;;-0.40;82.30;;;;;;5010324;28;20439;-65
2022/12/28 06:13:54;;;;;;;7.57;4.17;;;-0.40;82.30;;;;;;5022188;28;20486;-65
2022/12/28 06:16:26;;;;;;;6.83;3.77;;;-0.50;82.30;;;;;;5029008;28;20433;-65
2022/12/28 06:18:52;;;;;;;4.63;3.57;;;-0.50;82.20;;;;;;5043963;28;20431;-65
2022/12/28 06:21:26;;;;;;;6.00;4.57;;;-0.50;82.40;;;;;;5017291;28;20453;-65
2022/12/28 06:23:54;;;;;;;5.53;3.93;;;-0.50;82.40;;;;;;5028565;28;20219;-65
2022/12/28 06:26:20;;;;;;;6.20;3.53;;;-0.60;82.40;;;;;;5028356;28;20450;-65
2022/12/28 06:28:47;;;;;;;5.13;3.70;;;-0.60;82.50;;;;;;4998937;28;20428;-65
2022/12/28 06:31:21;;;;;;;7.43;3.80;;;-0.60;82.50;;;;;;5022018;28;20531;-65
2022/12/28 06:33:48;;;;;;;8.07;5.03;;;-0.60;82.40;;;;;;5031718;28;20443;-65
2022/12/28 06:36:19;;;;;;;8.87;5.50;;;-0.60;82.50;;;;;;5014572;28;20421;-65
2022/12/28 06:38:46;;;;;;;9.43;5.50;;;-0.60;82.80;;;;;;5025081;28;20420;-65
2022/12/28 06:41:13;;;;;;;10.37;5.63;;;-0.60;83.20;;;;;;5030002;28;20421;-65
2022/12/28 06:43:40;;;;;;;8.73;4.77;;;-0.60;83.10;;;;;;5050383;28;20723;-65
2022/12/28 06:46:06;;;;;;;5.67;4.13;;;-0.60;83.20;;;;;;5040430;28;20427;-65
2022/12/28 06:48:33;;;;;;;10.43;3.93;;;-0.50;83.20;;;;;;5008080;28;20471;-65
2022/12/28 06:51:01;;;;;;;9.50;4.53;;;-0.60;83.60;;;;;;5049899;28;20180;-65
2022/12/28 06:53:29;;;;;;;5.67;4.03;;;-0.50;83.60;;;;;;5033683;28;20456;-64
2022/12/28 06:56:04;;;;;;;5.33;3.73;;;-0.50;83.50;;;;;;5030496;28;20502;-64
2022/12/28 06:58:30;;;;;;;4.40;3.67;;;-0.50;83.60;;;;;;5027098;28;20434;-64
2022/12/28 07:01:03;;;;;;;6.43;4.13;;;-0.50;83.50;;;;;;5012491;28;20471;-64
2022/12/28 07:03:29;;;;;;;8.27;4.77;;;-0.40;83.50;;;;;;5034366;28;20918;-64
2022/12/28 07:06:00;;;;;;;7.10;5.10;;;-0.40;83.50;;;;;;5008676;28;20520;-64
2022/12/28 07:08:25;;;;;;;6.17;4.63;;;-0.40;83.60;;;;;;5033495;28;20183;-64
2022/12/28 07:10:51;;;;;;;8.60;5.37;;;-0.40;82.50;;;;;;5033939;28;20430;-64
2022/12/28 07:13:17;;;;;;;5.73;4.17;;;-0.40;82.70;;;;;;5018754;28;20201;-64
2022/12/28 07:15:42;;;;;;;9.17;4.90;;;-0.40;82.70;;;;;;5001341;28;20197;-64
2022/12/28 07:18:08;;;;;;;5.90;4.10;;;-0.40;82.70;;;;;;5019819;28;20206;-64
2022/12/28 07:20:34;;;;;;;6.10;4.37;;;-0.40;82.90;;;;;;5027486;28;20187;-64
2022/12/28 07:22:59;;;;;;;5.97;4.00;;;-0.40;83.10;;;;;;5029478;28;20196;-64
2022/12/28 07:25:25;;;;;;;6.90;4.50;;;-0.30;83.10;;;;;;5011526;28;20230;-64
2022/12/28 07:27:51;;;;;;;6.30;4.70;;;-0.30;83.10;;;;;;5008148;28;20645;-64
2022/12/28 07:30:17;;;;;;;6.27;4.83;;;-0.30;83.20;;;;;;5000862;28;20193;-64
2022/12/28 07:32:42;;;;;;;5.37;4.17;;;-0.30;83.20;;;;;;5043440;28;20194;-64
2022/12/28 07:35:09;;;;;;;7.37;5.27;;;-0.30;83.00;;;;;;5031779;28;20266;-64
2022/12/28 07:37:34;;;;;;;7.83;5.07;;;-0.30;83.10;;;;;;5028311;28;20183;-64
2022/12/28 07:40:00;;;;;;;6.30;4.43;;;-0.30;83.20;;;;;;5022265;28;20433;-64
2022/12/28 07:42:28;;;;;;;6.67;5.00;;;-0.30;83.10;;;;;;5015167;28;20671;-64
2022/12/28 07:44:53;;;;;;;6.27;4.53;;;-0.30;83.00;;;;;;5029361;28;20244;-64
2022/12/28 07:47:19;;;;;;;6.50;4.40;;;-0.20;83.00;;;;;;5018168;28;20491;-64
2022/12/28 07:49:45;;;;;;;5.53;4.00;;;-0.20;83.10;;;;;;5037948;28;20196;-64
2022/12/28 07:52:10;;;;;;;6.67;5.47;;;-0.10;83.30;;;;;;5003529;28;20183;-64
2022/12/28 07:54:36;;;;;;;6.37;5.30;;;-0.10;83.60;;;;;;5038299;28;20204;-64
2022/12/28 07:57:02;;;;;;;8.43;4.70;;;-0.10;83.60;;;;;;5020313;28;20197;-64
2022/12/28 07:59:28;;;;;;;5.37;4.20;;;0.00;83.70;;;;;;5021530;28;20186;-64
2022/12/28 08:01:53;;;;;;;7.57;5.27;;;0.00;83.60;;;;;;5015869;28;20533;-64
2022/12/28 08:04:19;;;;;;;9.40;5.00;;;0.00;83.70;;;;;;5003791;28;20250;-64
2022/12/28 08:06:45;;;;;;;7.13;5.10;;;0.00;83.80;;;;;;5018773;28;20185;-64
2022/12/28 08:09:13;;;;;;;7.40;4.87;;;0.10;83.70;;;;;;5013733;28;20188;-64
2022/12/28 08:11:43;;;;;;;7.57;4.47;;;0.20;83.60;;;;;;5031857;28;20183;-64
2022/12/28 08:14:10;;;;;;;13.73;8.87;;;0.20;83.60;;;;;;5040423;28;20663;-64
2022/12/28 08:16:42;;;;;;;11.97;8.03;;;0.20;83.20;;;;;;5022799;28;20443;-64
2022/12/28 08:19:08;;;;;;;10.47;7.77;;;0.30;83.20;;;;;;5035248;28;20445;-64
2022/12/28 08:21:39;;;;;;;10.83;7.47;;;0.30;83.10;;;;;;5039055;28;20449;-64
2022/12/28 08:24:06;;;;;;;8.53;6.33;;;0.30;83.00;;;;;;5034531;28;20457;-64
2022/12/28 08:26:34;;;;;;;7.03;5.93;;;0.30;83.10;;;;;;5015775;28;20433;-64
2022/12/28 08:29:03;;;;;;;7.33;5.63;;;0.30;83.20;;;;;;5038303;28;20446;-64
2022/12/28 08:31:31;;;;;;;8.07;5.17;;;0.30;83.20;;;;;;5031995;28;20425;-64
2022/12/28 08:33:58;;;;;;;7.20;4.63;;;0.30;83.50;;;;;;5001275;28;20436;-64
2022/12/28 08:36:24;;;;;;;6.43;4.80;;;0.40;83.40;;;;;;5036499;28;20431;-64
2022/12/28 08:38:50;;;;;;;10.43;5.33;;;0.40;83.40;;;;;;5031962;28;20445;-64
2022/12/28 08:41:19;;;;;;;6.37;4.77;;;0.50;83.50;;;;;;5018511;28;20429;-64
2022/12/28 08:43:45;;;;;;;6.77;5.20;;;0.50;83.40;;;;;;5034294;28;20183;-64
2022/12/28 08:46:17;;;;;;;7.73;4.97;;;0.60;83.40;;;;;;5016984;28;20442;-64
2022/12/28 08:48:44;;;;;;;6.47;5.00;;;0.60;83.40;;;;;;5021308;28;20195;-64
2022/12/28 08:51:13;;;;;;;6.13;5.27;;;0.60;83.40;;;;;;5035316;28;20441;-64
2022/12/28 08:53:39;;;;;;;9.03;5.20;;;0.70;83.50;;;;;;5023146;28;20476;-64
2022/12/28 08:56:15;;;;;;;6.30;5.23;;;0.80;83.40;;;;;;5022967;28;20445;-64
2022/12/28 08:58:42;;;;;;;6.47;5.07;;;0.80;83.40;;;;;;5041090;28;20523;-64
2022/12/28 09:01:17;;;;;;;9.03;4.60;;;0.80;83.00;;;;;;5029956;28;20497;-65
2022/12/28 09:03:46;;;;;;;7.93;4.80;;;0.90;83.20;;;;;;5037629;28;20448;-65
2022/12/28 09:06:17;;;;;;;5.70;4.80;;;1.00;83.10;;;;;;5031174;28;20453;-64
2022/12/28 09:08:43;;;;;;;6.97;4.50;;;1.00;83.00;;;;;;5021774;28;20429;-65
2022/12/28 09:11:11;;;;;;;5.70;4.03;;;1.00;82.90;;;;;;5035544;28;20429;-65
2022/12/28 09:13:37;;;;;;;7.50;5.07;;;1.10;82.50;;;;;;5033648;28;20186;-65
2022/12/28 09:16:05;;;;;;;7.60;5.13;;;1.20;81.80;;;;;;5034679;28;20429;-65
2022/12/28 09:18:31;;;;;;;6.43;4.73;;;1.20;81.60;;;;;;5040122;28;20427;-65
2022/12/28 09:21:07;;;;;;;5.40;4.20;;;1.20;81.70;;;;;;5034028;28;20513;-65
2022/12/28 09:23:34;;;;;;;7.43;4.90;;;1.20;82.10;;;;;;5033796;28;20424;-65
2022/12/28 09:26:17;;;;;;;7.57;5.73;;;1.40;81.70;;;;;;5028531;28;20527;-65
2022/12/28 09:28:48;;;;;;;8.60;5.43;;;1.40;81.40;;;;;;5029620;28;20445;-65
2022/12/28 09:31:15;;;;;;;6.60;5.37;;;1.50;81.00;;;;;;5035972;28;20451;-65
2022/12/28 09:33:59;;;;;;;4.60;3.93;;;1.60;80.60;;;;;;5033008;28;20421;-65
2022/12/28 09:36:43;;;;;;;6.43;4.50;;;1.60;80.80;;;;;;5025654;28;20445;-65
2022/12/28 09:39:19;;;;;;;6.83;4.30;;;1.70;80.60;;;;;;5029327;28;20418;-64
2022/12/28 09:41:54;;;;;;;6.80;4.70;;;1.80;80.60;;;;;;4999962;28;20437;-64
2022/12/28 09:44:46;;;;;;;6.63;4.93;;;1.90;79.60;;;;;;5039955;28;20456;-65
2022/12/28 09:47:34;;;;;;;8.97;5.50;;;2.10;80.00;;;;;;5045526;28;20479;-64
2022/12/28 09:50:06;;;;;;;5.50;4.07;;;2.20;79.40;;;;;;5035740;28;20935;-64
2022/12/28 09:52:46;;;;;;;5.30;4.13;;;2.30;79.40;;;;;;5013534;28;20437;-65
2022/12/28 09:55:15;;;;;;;7.60;4.53;;;2.50;79.00;;;;;;5026477;28;20451;-64
2022/12/28 09:57:49;;;;;;;9.40;5.40;;;2.60;78.00;;;;;;5035839;28;20444;-64
2022/12/28 10:00:25;;;;;;;6.80;4.70;;;2.70;78.10;;;;;;5036239;28;20429;-64
2022/12/28 10:03:00;;;;;;;9.03;5.10;;;2.80;77.70;;;;;;5041399;28;20517;-64
2022/12/28 10:05:26;;;;;;;7.47;4.80;;;2.90;77.50;;;;;;5029289;28;20506;-64
2022/12/28 10:07:56;;;;;;;4.90;4.20;;;3.10;76.60;;;;;;5018462;28;20441;-64
2022/12/28 10:10:22;;;;;;;6.63;5.00;;;3.10;77.20;;;;;;5024365;28;20183;-64
2022/12/28 10:12:49;;;;;;;8.67;5.20;;;3.30;75.70;;;;;;5034614;28;20429;-64
2022/12/28 10:15:16;;;;;;;5.60;4.77;;;3.50;75.70;;;;;;5038502;28;20430;-64
2022/12/28 10:17:42;;;;;;;6.77;4.53;;;3.70;75.70;;;;;;5046686;28;20425;-64
2022/12/28 10:20:20;;;;;;;6.40;4.70;;;3.90;75.70;;;;;;5009961;28;20426;-65
2022/12/28 10:22:51;;;;;;;5.17;4.00;;;4.00;74.20;;;;;;5033923;28;20418;-64
2022/12/28 10:25:21;;;;;;;8.97;5.77;;;4.20;74.50;;;;;;5037807;28;20465;-64
2022/12/28 10:27:47;;;;;;;5.77;4.40;;;4.30;71.80;;;;;;5033328;28;20428;-64
2022/12/28 10:30:19;;;;;;;5.97;4.40;;;4.40;72.60;;;;;;5035658;28;20441;-64
2022/12/28 10:32:50;;;;;;;5.00;3.93;;;4.50;73.20;;;;;;5025418;28;20437;-64
2022/12/28 10:35:39;;;;;;;5.77;4.30;;;4.70;72.50;;;;;;5047531;28;20414;-64
2022/12/28 10:38:21;;;;;;;7.60;4.60;;;4.80;72.50;;;;;;5043920;28;20475;-64
2022/12/28 10:40:59;;;;;;;6.03;4.37;;;5.00;71.10;;;;;;5036523;28;20440;-65
2022/12/28 10:43:34;;;;;;;8.30;4.63;;;5.00;70.70;;;;;;5018655;28;20448;-64
2022/12/28 10:46:05;;;;;;;7.30;4.90;;;5.10;68.90;;;;;;5036795;28;20466;-64
2022/12/28 10:48:35;;;;;;;8.30;5.43;;;5.20;67.70;;;;;;5024434;28;20443;-64
2022/12/28 10:51:33;;;;;;;8.50;4.93;;;5.30;68.50;;;;;;5041660;28;20413;-64
2022/12/28 10:53:59;;;;;;;8.47;5.07;;;5.30;68.30;;;;;;4979005;28;20424;-64
2022/12/28 10:56:30;;;;;;;7.27;4.70;;;5.40;66.80;;;;;;5017507;28;20444;-64
2022/12/28 10:59:13;;;;;;;6.97;4.70;;;5.50;67.00;;;;;;5038132;28;20186;-64
2022/12/28 11:01:41;;;;;;;6.47;5.53;;;5.60;66.40;;;;;;5044034;28;20476;-64
2022/12/28 11:04:33;;;;;;;7.80;4.83;;;5.60;65.20;;;;;;5033812;28;20456;-64
2022/12/28 11:07:00;;;;;;;10.20;5.13;;;5.60;65.40;;;;;;5016184;28;20531;-64
2022/12/28 11:09:27;;;;;;;10.87;5.17;;;5.70;66.20;;;;;;5047624;28;20413;-65
2022/12/28 11:12:13;;;;;;;9.00;4.40;;;5.90;66.20;;;;;;5022096;28;20439;-64
2022/12/28 11:14:39;;;;;;;8.83;4.50;;;6.00;66.20;;;;;;5032905;28;20530;-64
2022/12/28 11:17:26;;;;;;;7.40;5.40;;;6.10;66.10;;;;;;5028152;28;20433;-64
2022/12/28 11:19:56;;;;;;;6.93;5.10;;;6.10;65.30;;;;;;5025768;28;20201;-64
2022/12/28 11:22:25;;;;;;;8.00;4.90;;;6.10;63.40;;;;;;5031619;28;20422;-64
2022/12/28 11:24:51;;;;;;;9.07;5.87;;;6.20;62.30;;;;;;5032662;28;20547;-64
2022/12/28 11:27:20;;;;;;;9.10;5.17;;;6.20;61.70;;;;;;5015402;28;20414;-64
2022/12/28 11:29:49;;;;;;;6.70;5.13;;;6.30;61.90;;;;;;5031686;28;20446;-64
2022/12/28 11:32:23;;;;;;;10.27;5.13;;;6.20;61.60;;;;;;5020753;28;20425;-64
2022/12/28 11:34:51;;;;;;;7.93;5.33;;;6.30;61.00;;;;;;5031662;28;20531;-64
2022/12/28 11:37:17;;;;;;;10.00;5.63;;;6.30;61.50;;;;;;5030638;28;20525;-64
2022/12/28 11:39:48;;;;;;;8.43;5.37;;;6.30;60.60;;;;;;5012890;28;20547;-64
2022/12/28 11:42:35;;;;;;;9.53;4.70;;;6.30;60.60;;;;;;5032286;28;20194;-64
2022/12/28 11:45:10;;;;;;;8.70;5.03;;;6.30;60.90;;;;;;5025487;28;20473;-64
2022/12/28 11:47:36;;;;;;;5.50;4.67;;;6.40;60.70;;;;;;5039401;28;20433;-64
2022/12/28 11:50:33;;;;;;;13.00;5.77;;;6.50;61.20;;;;;;5029583;28;20514;-64
2022/12/28 11:53:00;;;;;;;6.90;5.07;;;6.50;59.80;;;;;;5015944;28;20203;-64
2022/12/28 11:55:48;;;;;;;8.30;4.73;;;6.60;59.40;;;;;;5020367;28;20465;-64
2022/12/28 11:58:41;;;;;;;10.73;5.40;;;6.70;58.40;;;;;;5017955;28;20426;-64
2022/12/28 12:01:32;;;;;;;9.93;4.97;;;6.60;58.70;;;;;;5027978;28;20481;-64
2022/12/28 12:03:58;;;;;;;7.90;5.17;;;6.90;56.90;;;;;;5031219;28;20429;-64
2022/12/28 12:06:41;;;;;;;8.90;4.67;;;6.80;57.40;;;;;;5037146;28;20428;-64
2022/12/28 12:09:43;;;;;;;6.47;4.20;;;6.90;58.40;;;;;;5032442;28;20195;-64
2022/12/28 12:12:14;;;;;;;7.70;5.47;;;6.90;58.90;;;;;;5026591;28;20447;-64
2022/12/28 12:14:46;;;;;;;7.87;5.17;;;7.00;58.00;;;;;;5037034;28;20447;-64
2022/12/28 12:17:19;;;;;;;9.57;5.97;;;7.10;57.00;;;;;;5033289;28;20445;-64
2022/12/28 12:19:53;;;;;;;5.77;4.57;;;7.10;57.40;;;;;;5036887;28;20428;-64
2022/12/28 12:22:27;;;;;;;11.20;5.30;;;7.20;57.50;;;;;;5040413;28;20436;-64
2022/12/28 12:25:31;;;;;;;9.47;5.83;;;7.30;57.30;;;;;;5036700;28;20205;-64
2022/12/28 12:27:59;;;;;;;8.77;4.90;;;7.50;55.70;;;;;;5024666;28;20462;-64
2022/12/28 12:30:28;;;;;;;8.47;6.00;;;7.50;56.10;;;;;;5020635;28;20191;-64
2022/12/28 12:33:03;;;;;;;9.13;5.07;;;7.70;55.80;;;;;;5031449;28;20190;-64
2022/12/28 12:35:36;;;;;;;14.83;5.83;;;7.80;55.00;;;;;;5029522;28;20186;-64
2022/12/28 12:38:14;;;;;;;7.63;4.93;;;7.90;54.20;;;;;;5033389;28;20195;-64
2022/12/28 12:41:05;;;;;;;9.43;5.83;;;7.80;55.10;;;;;;5028877;28;20296;-64
2022/12/28 12:43:46;;;;;;;10.27;6.07;;;7.80;54.80;;;;;;5035133;28;20186;-64
2022/12/28 12:46:48;;;;;;;9.97;5.73;;;7.80;55.10;;;;;;5033129;28;20191;-64
2022/12/28 12:49:39;;;;;;;10.93;6.47;;;7.80;54.80;;;;;;5026312;28;20768;-64
2022/12/28 12:52:08;;;;;;;7.40;5.40;;;8.00;55.10;;;;;;5040321;28;20195;-64
2022/12/28 12:54:48;;;;;;;8.53;4.93;;;7.80;55.10;;;;;;5039699;28;20194;-64
2022/12/28 12:57:23;;;;;;;6.67;4.63;;;7.80;55.10;;;;;;5025521;28;20194;-64
2022/12/28 12:59:58;;;;;;;7.43;5.20;;;8.00;53.40;;;;;;5036963;28;20194;-64
2022/12/28 13:02:51;;;;;;;9.50;5.77;;;7.90;53.10;;;;;;5043960;28;20235;-64
2022/12/28 13:05:25;;;;;;;6.83;5.10;;;7.90;53.60;;;;;;5018214;28;20228;-64
2022/12/28 13:07:54;;;;;;;9.83;5.53;;;8.00;53.70;;;;;;5039848;28;20187;-64
2022/12/28 13:10:30;;;;;;;13.67;5.43;;;8.00;53.90;;;;;;5025439;28;20195;-64
2022/12/28 13:12:58;;;;;;;6.33;4.63;;;8.00;54.10;;;;;;5028895;28;20183;-64
2022/12/28 13:15:24;;;;;;;8.90;5.20;;;8.00;53.50;;;;;;5013215;28;20446;-64
2022/12/28 13:18:17;;;;;;;7.20;5.30;;;8.00;53.40;;;;;;5020077;28;20249;-64
2022/12/28 13:21:01;;;;;;;8.30;5.27;;;7.80;53.80;;;;;;5023440;28;20206;-64
2022/12/28 13:23:29;;;;;;;7.10;4.73;;;7.80;54.20;;;;;;5038676;28;20179;-64
2022/12/28 13:25:59;;;;;;;10.23;5.27;;;7.80;54.60;;;;;;5016694;28;20210;-64
2022/12/28 13:28:29;;;;;;;6.07;4.40;;;7.90;53.70;;;;;;5023767;28;20193;-64
2022/12/28 13:31:22;;;;;;;7.93;5.07;;;7.90;54.10;;;;;;5023645;28;20187;-64
2022/12/28 13:34:00;;;;;;;7.93;4.77;;;8.00;54.00;;;;;;5028901;28;20195;-64
2022/12/28 13:36:26;;;;;;;7.23;5.33;;;8.10;53.70;;;;;;5037109;28;20175;-64
2022/12/28 13:39:12;;;;;;;8.00;4.67;;;8.00;53.80;;;;;;5040936;28;20194;-64
2022/12/28 13:42:02;;;;;;;7.53;5.13;;;8.10;54.10;;;;;;5034419;28;20194;-64